La Grande Rivière Airport
CYGL : now visible

Airfield :











YOU CAN JOIN US ON...

 
LOGIN :

Register | Disclaimer

   EN    FR    IT 

 









Legend :    VFR   Marginal VFR   IFR   Intensive IFR   Very Intensive IFR
Visi :
Ceiling :
>= 8 km
>= 3000ft
5 to 8 km
1000 to 3000 ft
1500m to 5 km
500 to 1000 ft
800 to 1500m
200 to 500 ft
< 800m
< 200 ft
Symbols :   Thunderstorms  Fog  Heavy snow  Heavy precipitations  Wind > 20 kt






- Airport Elevation : 639 ft
- IATA code : YGL


CYGL - La Grande Rivière

CURRENT METAR :
  • 041200Z 29005KT 12SM -DZ SCT006 OVC008 03/02 A3008 RMK SF4SF4 CIG RAG SLP199

EXPIRED METARs :
  • 041143Z 29005KT 10SM -DZ SCT006 OVC008 03/02 A3008 RMK SF4SF4 CIG RAG SLP199
  • 041100Z 33004KT 280V360 8SM -DZ OVC006 03/03 A3008 RMK SF8 SLP198
  • 041000Z 30005KT 6SM -DZ OVC006 03/03 A3007 RMK SF8 SLP193
  • 040929Z 28005KT 3SM -DZ OVC005 04/03 A3006 RMK SF8 SLP190
  • 040900Z 30006KT 6SM -DZ OVC008 04/03 A3006 RMK SF8 SLP189

TAF TAF CYGL
Valid from the 04 at 12:00 until the 05 at 12:00 UTC


041140Z 0412/0512 30005KT 2SM -DZ BR OVC006
TEMPO 0412/0415 P6SM NSW SCT005 OVC010
BECMG 0413/0415 26010KT
FM041500 26010KT P6SM BKN015
BECMG 0415/0417 FEW025
FM050300 VRB03KT P6SM SKC
PROB30 0504/0509 1SM BR BKN002
FM050900 VRB03KT P6SM BKN160
PROB30 0509/0512 1SM BR BKN002 RMK NXT FCST BY 041800Z
CZUL FIR / North America



MET'MAP, your aeronautical weather chart ! - Copyright ORBIFLY December 2007 - Disclaimer

ORBIFLY MET'MAP TEAM :

Programming & Development : Alexandra Zaïnal
Original concept : Baudouin d'Aumeries
Technical & hardware support : Manuel Goepfert
Assistance : Marc-Olivier Méhu




SOURCES & CREDITS :

   NOAA       Earth
Advisory